Time;durP1;ratioP1;P1;durP2;ratioP2;P2;SDS_P1;SDS_P2;PMS_P1;PMS_P2;Temp;Humidity;BMP_temperature;BMP_pressure;BME280_temperature;BME280_humidity;BME280_pressure;Samples;Min_cycle;Max_cycle;Signal;HPM_P1;HPM_P2
2022/10/02 00:01:09;;;;;;;7.33;3.33;;;11.40;99.90;;;;;;4978519;28;20549;-68
2022/10/02 00:03:42;;;;;;;8.00;3.40;;;11.40;99.90;;;;;;4979035;28;20446;-69
2022/10/02 00:06:16;;;;;;;6.53;2.73;;;11.40;99.90;;;;;;4978726;28;20550;-68
2022/10/02 00:08:45;;;;;;;5.93;3.00;;;11.40;99.90;;;;;;4978503;28;20441;-68
2022/10/02 00:11:18;;;;;;;9.03;3.30;;;11.40;99.90;;;;;;4978059;28;20816;-67
2022/10/02 00:13:47;;;;;;;7.67;3.43;;;11.50;99.90;;;;;;4977830;28;20446;-69
2022/10/02 00:16:21;;;;;;;8.57;3.10;;;11.50;99.90;;;;;;4978264;28;20755;-69
2022/10/02 00:18:50;;;;;;;5.90;2.60;;;11.50;99.90;;;;;;4977999;28;20440;-68
2022/10/02 00:21:30;;;;;;;11.30;3.87;;;11.50;99.90;;;;;;4978197;28;20935;-69
2022/10/02 00:24:00;;;;;;;7.47;3.37;;;11.50;99.90;;;;;;4978373;28;20503;-69
2022/10/02 00:26:31;;;;;;;6.50;2.63;;;11.50;99.90;;;;;;4977698;28;20473;-69
2022/10/02 00:29:08;;;;;;;8.93;2.90;;;11.60;99.90;;;;;;4978009;28;20458;-69
2022/10/02 00:31:44;;;;;;;4.47;3.00;;;11.50;99.90;;;;;;4977650;28;20499;-69
2022/10/02 00:34:20;;;;;;;7.93;3.80;;;11.50;99.90;;;;;;4977853;28;20863;-69
2022/10/02 00:36:58;;;;;;;6.20;2.53;;;11.60;99.90;;;;;;4978495;28;20884;-69
2022/10/02 00:39:38;;;;;;;6.90;3.00;;;11.60;99.90;;;;;;4977626;28;20453;-69
2022/10/02 00:42:39;;;;;;;10.90;3.20;;;11.50;99.90;;;;;;4978191;28;20887;-69
2022/10/02 00:45:42;;;;;;;10.37;2.60;;;11.60;99.90;;;;;;4977646;28;20547;-68
2022/10/02 00:48:25;;;;;;;12.43;3.20;;;11.60;99.90;;;;;;4977607;28;20457;-67
2022/10/02 00:51:01;;;;;;;13.10;3.20;;;11.60;99.90;;;;;;4977518;28;20481;-68
2022/10/02 00:53:42;;;;;;;9.67;2.57;;;11.60;99.90;;;;;;4977113;28;20490;-69
2022/10/02 00:56:18;;;;;;;6.30;2.60;;;11.60;99.90;;;;;;4977592;28;20446;-68
2022/10/02 00:59:17;;;;;;;4.23;2.33;;;11.60;99.90;;;;;;4977252;28;20460;-70
2022/10/02 01:01:51;;;;;;;6.20;2.20;;;11.60;99.90;;;;;;4977362;28;20807;-69
2022/10/02 01:04:24;;;;;;;7.80;3.23;;;11.60;99.90;;;;;;4977107;28;20493;-70
2022/10/02 01:06:50;;;;;;;4.60;2.70;;;11.60;99.90;;;;;;4976849;28;20534;-69
2022/10/02 01:09:19;;;;;;;5.87;2.50;;;11.60;99.90;;;;;;4977091;28;20513;-69
2022/10/02 01:11:46;;;;;;;9.17;2.70;;;11.60;99.90;;;;;;4976871;28;20928;-70
2022/10/02 01:14:14;;;;;;;13.37;3.00;;;11.60;99.90;;;;;;4976859;28;20461;-69
2022/10/02 01:16:41;;;;;;;6.93;2.67;;;11.60;99.90;;;;;;4976407;28;20937;-68
2022/10/02 01:19:21;;;;;;;13.67;2.83;;;11.60;99.90;;;;;;4976440;28;20876;-69
2022/10/02 01:21:57;;;;;;;7.30;2.70;;;11.60;99.90;;;;;;4976909;28;20537;-68
2022/10/02 01:24:31;;;;;;;11.20;3.07;;;11.60;99.90;;;;;;4977017;28;20457;-69
2022/10/02 01:26:59;;;;;;;12.27;2.63;;;11.60;99.90;;;;;;4976751;28;20469;-68
2022/10/02 01:29:26;;;;;;;8.90;2.87;;;11.50;99.90;;;;;;4976825;28;20462;-69
2022/10/02 01:31:53;;;;;;;10.77;2.70;;;11.60;99.90;;;;;;4976397;28;20489;-70
2022/10/02 01:34:20;;;;;;;10.60;3.33;;;11.50;99.90;;;;;;4976238;28;20462;-68
2022/10/02 01:36:48;;;;;;;7.53;2.10;;;11.50;99.90;;;;;;4976847;28;20459;-68
2022/10/02 01:39:15;;;;;;;7.40;2.87;;;11.50;99.90;;;;;;4976704;28;20473;-70
2022/10/02 01:41:44;;;;;;;8.00;2.70;;;11.50;99.90;;;;;;4976376;28;20549;-70
2022/10/02 01:44:14;;;;;;;7.47;3.67;;;11.50;99.90;;;;;;4975423;28;20467;-69
2022/10/02 01:46:49;;;;;;;9.30;2.90;;;11.40;99.90;;;;;;4976901;28;20459;-70
2022/10/02 01:49:32;;;;;;;8.63;2.40;;;11.40;99.90;;;;;;4976543;28;20443;-69
2022/10/02 01:52:20;;;;;;;7.43;3.07;;;11.40;99.90;;;;;;4976036;28;20755;-70
2022/10/02 01:54:59;;;;;;;8.90;2.57;;;11.40;99.90;;;;;;4976330;28;20470;-69
2022/10/02 01:57:36;;;;;;;4.67;2.17;;;11.40;99.90;;;;;;4977500;28;20867;-70
2022/10/02 02:00:08;;;;;;;10.50;2.73;;;11.40;99.90;;;;;;4978738;28;20457;-69
2022/10/02 02:02:44;;;;;;;7.13;2.33;;;11.30;99.90;;;;;;4980380;28;20518;-68
2022/10/02 02:05:18;;;;;;;14.40;3.37;;;11.30;99.90;;;;;;4981090;28;20542;-69
2022/10/02 02:07:51;;;;;;;8.03;2.77;;;11.30;99.90;;;;;;4978640;28;20538;-68
2022/10/02 02:10:25;;;;;;;6.83;3.00;;;11.30;99.90;;;;;;4976103;28;20906;-70
2022/10/02 02:12:59;;;;;;;6.40;2.27;;;11.30;99.90;;;;;;4976234;28;20467;-69
2022/10/02 02:15:35;;;;;;;9.67;2.70;;;11.30;99.90;;;;;;4976167;28;20457;-69
2022/10/02 02:18:08;;;;;;;9.63;3.20;;;11.30;99.90;;;;;;4975808;28;20876;-69
2022/10/02 02:20:40;;;;;;;4.70;2.90;;;11.30;99.90;;;;;;4976064;28;20447;-70
2022/10/02 02:23:10;;;;;;;8.50;2.40;;;11.30;99.90;;;;;;4975583;28;20439;-69
2022/10/02 02:25:42;;;;;;;9.40;2.90;;;11.30;99.90;;;;;;4975820;28;20447;-68
2022/10/02 02:28:12;;;;;;;8.37;2.43;;;11.30;99.90;;;;;;4975889;28;20462;-69
2022/10/02 02:30:44;;;;;;;7.27;2.63;;;11.30;99.90;;;;;;4976569;28;20764;-69
2022/10/02 02:33:16;;;;;;;8.67;2.33;;;11.30;99.90;;;;;;4975724;28;20470;-69
2022/10/02 02:35:47;;;;;;;8.67;3.07;;;11.30;99.90;;;;;;4975863;28;20825;-69
2022/10/02 02:38:20;;;;;;;9.53;2.70;;;11.30;99.90;;;;;;4975403;28;20543;-69
2022/10/02 02:40:47;;;;;;;6.10;2.73;;;11.30;99.90;;;;;;4975793;28;20451;-68
2022/10/02 02:43:21;;;;;;;10.17;2.40;;;11.30;99.90;;;;;;4975873;28;20481;-69
2022/10/02 02:45:53;;;;;;;6.33;3.10;;;11.30;99.90;;;;;;4975604;28;20887;-69
2022/10/02 02:48:25;;;;;;;11.00;2.47;;;11.20;99.90;;;;;;4975385;28;20883;-69
2022/10/02 02:50:58;;;;;;;7.87;3.20;;;11.20;99.90;;;;;;4975673;28;20847;-69
2022/10/02 02:53:29;;;;;;;14.60;3.30;;;11.20;99.90;;;;;;4975334;28;20483;-67
2022/10/02 02:55:59;;;;;;;11.07;2.87;;;11.20;99.90;;;;;;4977583;28;20457;-69
2022/10/02 02:58:30;;;;;;;9.20;2.70;;;11.20;99.90;;;;;;4978895;28;20463;-69
2022/10/02 03:00:58;;;;;;;4.97;2.40;;;11.20;99.90;;;;;;4979741;28;20899;-69
2022/10/02 03:03:25;;;;;;;6.80;2.30;;;11.20;99.90;;;;;;4979105;28;20459;-70
2022/10/02 03:06:02;;;;;;;14.00;3.23;;;11.20;99.90;;;;;;4978953;28;20469;-69
2022/10/02 03:08:32;;;;;;;8.80;3.13;;;11.20;99.90;;;;;;4979070;28;20784;-69
2022/10/02 03:11:10;;;;;;;7.43;2.43;;;11.20;99.90;;;;;;4979364;28;20457;-69
2022/10/02 03:13:50;;;;;;;8.70;2.83;;;11.20;99.90;;;;;;4979118;28;20782;-69
2022/10/02 03:16:33;;;;;;;9.57;3.00;;;11.20;99.90;;;;;;4979306;28;20453;-69
2022/10/02 03:19:14;;;;;;;10.33;2.80;;;11.20;99.90;;;;;;4979107;28;20443;-68
2022/10/02 03:21:51;;;;;;;5.60;2.53;;;11.10;99.90;;;;;;4979077;28;20439;-69
2022/10/02 03:24:23;;;;;;;8.30;2.70;;;11.10;99.90;;;;;;4979085;28;20526;-69
2022/10/02 03:26:55;;;;;;;6.00;2.63;;;11.10;99.90;;;;;;4979059;28;20443;-69
2022/10/02 03:29:28;;;;;;;5.90;2.53;;;11.10;99.90;;;;;;4978879;28;20841;-68
2022/10/02 03:31:58;;;;;;;7.40;2.67;;;11.10;99.90;;;;;;4978526;28;20467;-69
2022/10/02 03:34:26;;;;;;;5.93;2.93;;;11.20;99.90;;;;;;4978658;28;20543;-69
2022/10/02 03:36:53;;;;;;;10.20;2.70;;;11.20;99.90;;;;;;4978757;28;20464;-69
2022/10/02 03:39:20;;;;;;;6.57;2.40;;;11.20;99.90;;;;;;4978740;28;20458;-68
2022/10/02 03:41:48;;;;;;;5.63;2.63;;;11.10;99.90;;;;;;4978740;28;20480;-69
2022/10/02 03:44:14;;;;;;;11.93;3.03;;;11.10;99.90;;;;;;4978721;28;20489;-69
2022/10/02 03:46:41;;;;;;;8.67;2.27;;;11.20;99.90;;;;;;4978368;28;20463;-70
2022/10/02 03:49:09;;;;;;;7.23;2.57;;;11.20;99.90;;;;;;4978629;28;20865;-69
2022/10/02 03:51:36;;;;;;;7.93;2.57;;;11.20;99.90;;;;;;4978544;28;20795;-68
2022/10/02 03:54:06;;;;;;;10.60;3.00;;;11.10;99.90;;;;;;4978405;28;20486;-68
2022/10/02 03:56:40;;;;;;;9.70;3.17;;;11.20;99.90;;;;;;4978478;28;20534;-69
2022/10/02 03:59:15;;;;;;;9.23;2.73;;;11.20;99.90;;;;;;4978218;28;20453;-69
2022/10/02 04:01:46;;;;;;;11.03;3.30;;;11.20;99.90;;;;;;4978374;28;20529;-69
2022/10/02 04:04:18;;;;;;;11.93;2.63;;;11.10;99.90;;;;;;4978060;28;20454;-68
2022/10/02 04:06:48;;;;;;;8.07;3.17;;;11.20;99.90;;;;;;4977593;28;20448;-69
2022/10/02 04:09:21;;;;;;;11.90;3.23;;;11.20;99.90;;;;;;4978237;28;20458;-70
2022/10/02 04:11:54;;;;;;;10.37;3.07;;;11.20;99.90;;;;;;4978161;28;20811;-69
2022/10/02 04:14:26;;;;;;;10.63;2.70;;;11.30;99.90;;;;;;4978238;28;20918;-67
2022/10/02 04:17:00;;;;;;;8.57;2.50;;;11.30;99.90;;;;;;4978016;28;20453;-69
2022/10/02 04:19:34;;;;;;;8.93;3.50;;;11.30;99.90;;;;;;4977958;28;20467;-69
2022/10/02 04:22:07;;;;;;;10.60;2.87;;;11.30;99.90;;;;;;4978024;28;20465;-69
2022/10/02 04:24:44;;;;;;;6.63;3.20;;;11.30;99.90;;;;;;4978852;28;20775;-70
2022/10/02 04:27:15;;;;;;;8.20;2.60;;;11.30;99.90;;;;;;4978069;28;20447;-70
2022/10/02 04:29:49;;;;;;;4.40;2.20;;;11.30;99.90;;;;;;4977800;28;20447;-69
2022/10/02 04:32:20;;;;;;;8.20;2.80;;;11.30;99.90;;;;;;4977643;28;20772;-68
2022/10/02 04:34:49;;;;;;;5.23;2.33;;;11.40;99.90;;;;;;4977772;28;20447;-68
2022/10/02 04:37:36;;;;;;;7.73;2.53;;;11.40;99.90;;;;;;4977633;28;20455;-68
2022/10/02 04:40:13;;;;;;;9.00;2.57;;;11.40;99.90;;;;;;4977636;28;20457;-69
2022/10/02 04:42:53;;;;;;;8.07;2.50;;;11.40;99.90;;;;;;4977541;28;20453;-69
2022/10/02 04:45:45;;;;;;;10.17;2.20;;;11.50;99.90;;;;;;4977585;28;20446;-68
2022/10/02 04:48:46;;;;;;;5.83;2.03;;;11.50;99.90;;;;;;4977444;28;20447;-68
2022/10/02 04:51:25;;;;;;;4.47;1.83;;;11.50;99.90;;;;;;4977349;28;20464;-69
2022/10/02 04:54:19;;;;;;;8.90;2.10;;;11.60;99.90;;;;;;4976878;28;20588;-68
2022/10/02 04:56:59;;;;;;;8.63;2.70;;;11.60;99.90;;;;;;4977000;28;20453;-68
2022/10/02 04:59:42;;;;;;;6.23;2.17;;;11.70;99.90;;;;;;4977205;28;20442;-69
2022/10/02 05:02:26;;;;;;;5.63;2.10;;;11.70;99.90;;;;;;4977631;28;20446;-68
2022/10/02 05:05:04;;;;;;;6.20;1.90;;;11.70;99.90;;;;;;4977048;28;20447;-68
2022/10/02 05:07:59;;;;;;;9.13;2.63;;;11.70;99.90;;;;;;4976823;28;20447;-68
2022/10/02 05:10:42;;;;;;;8.50;2.17;;;11.80;99.90;;;;;;4977325;28;20780;-68
2022/10/02 05:13:32;;;;;;;14.27;2.30;;;11.80;99.90;;;;;;4977006;28;20475;-70
2022/10/02 05:16:23;;;;;;;5.90;2.50;;;11.80;99.90;;;;;;4978669;28;20453;-70
2022/10/02 05:19:13;;;;;;;7.90;2.03;;;11.90;99.90;;;;;;4959764;28;20865;-69
2022/10/02 05:22:03;;;;;;;9.60;1.73;;;11.90;99.90;;;;;;4977965;28;20457;-69
2022/10/02 05:24:44;;;;;;;17.23;2.63;;;11.90;99.90;;;;;;4976941;28;20443;-69
2022/10/02 05:27:25;;;;;;;3.83;2.20;;;11.90;99.90;;;;;;4976623;28;20537;-69
2022/10/02 05:30:06;;;;;;;6.90;2.40;;;11.90;99.90;;;;;;4976738;28;20465;-68
2022/10/02 05:33:15;;;;;;;8.97;3.40;;;11.90;99.90;;;;;;4976875;28;20471;-69
2022/10/02 05:36:12;;;;;;;8.00;2.83;;;11.90;99.90;;;;;;4956721;28;20454;-69
2022/10/02 05:39:01;;;;;;;6.47;2.27;;;11.80;99.90;;;;;;4976601;28;20457;-69
2022/10/02 05:41:39;;;;;;;8.20;2.27;;;11.90;99.90;;;;;;4976395;28;20538;-69
2022/10/02 05:44:12;;;;;;;6.30;2.00;;;11.80;99.90;;;;;;4976152;28;20449;-69
2022/10/02 05:46:44;;;;;;;9.43;2.77;;;11.80;99.90;;;;;;4976473;28;20896;-69
2022/10/02 05:49:16;;;;;;;5.13;1.90;;;11.80;99.90;;;;;;4976337;28;20443;-68
2022/10/02 05:51:52;;;;;;;8.73;2.27;;;11.90;99.90;;;;;;4976612;28;20443;-69
2022/10/02 05:54:27;;;;;;;5.50;2.17;;;11.90;99.90;;;;;;4976219;28;20449;-69
2022/10/02 05:57:02;;;;;;;7.13;1.83;;;12.00;99.90;;;;;;4976239;28;20445;-69
2022/10/02 05:59:36;;;;;;;6.67;3.17;;;12.00;99.90;;;;;;4977326;28;20447;-69
2022/10/02 06:02:10;;;;;;;10.30;2.70;;;12.00;99.90;;;;;;4976277;28;20439;-69
2022/10/02 06:04:41;;;;;;;5.10;2.30;;;12.10;99.90;;;;;;4976785;28;20482;-69
2022/10/02 06:07:12;;;;;;;7.23;2.30;;;12.20;99.90;;;;;;4976514;28;20479;-69
2022/10/02 06:09:46;;;;;;;7.63;2.30;;;12.20;99.90;;;;;;4977964;28;20497;-69
2022/10/02 06:12:25;;;;;;;10.07;2.30;;;12.30;99.90;;;;;;4977090;28;20898;-68
2022/10/02 06:14:58;;;;;;;5.77;2.27;;;12.30;99.90;;;;;;4976406;28;20513;-68
2022/10/02 06:17:30;;;;;;;6.77;2.00;;;12.40;99.90;;;;;;4976374;28;20443;-68
2022/10/02 06:20:03;;;;;;;8.77;2.30;;;12.40;99.90;;;;;;4976358;28;20777;-68
2022/10/02 06:22:34;;;;;;;6.07;2.43;;;12.50;99.90;;;;;;4975957;28;20443;-69
2022/10/02 06:25:08;;;;;;;6.87;2.50;;;12.50;99.90;;;;;;4976438;28;20842;-69
2022/10/02 06:27:43;;;;;;;4.80;2.47;;;12.40;99.90;;;;;;4975921;28;20533;-70
2022/10/02 06:30:13;;;;;;;5.60;2.47;;;12.40;99.90;;;;;;4977548;28;20497;-68
2022/10/02 06:32:45;;;;;;;6.07;3.37;;;12.40;99.90;;;;;;4982538;28;20496;-69
2022/10/02 06:35:14;;;;;;;3.60;2.37;;;12.40;99.90;;;;;;4982933;28;20641;-69
2022/10/02 06:38:09;;;;;;;8.03;2.37;;;12.40;99.90;;;;;;4982956;28;20541;-69
2022/10/02 06:40:50;;;;;;;12.93;3.00;;;12.40;99.90;;;;;;4982318;28;20572;-69
2022/10/02 06:43:32;;;;;;;8.73;3.27;;;12.40;99.90;;;;;;4982353;28;20454;-68
2022/10/02 06:46:09;;;;;;;10.90;3.30;;;12.40;99.90;;;;;;4982094;28;20893;-70
2022/10/02 06:48:47;;;;;;;10.20;3.77;;;12.50;99.90;;;;;;4983031;28;20446;-68
2022/10/02 06:51:24;;;;;;;7.97;3.30;;;12.50;99.90;;;;;;4982139;28;20456;-69
2022/10/02 06:54:17;;;;;;;6.90;3.00;;;12.40;99.90;;;;;;4981597;28;20596;-69
2022/10/02 06:57:01;;;;;;;6.30;3.23;;;12.50;99.90;;;;;;4982306;28;20447;-69
2022/10/02 06:59:44;;;;;;;9.17;3.13;;;12.50;99.90;;;;;;4982614;28;20879;-69
2022/10/02 07:02:28;;;;;;;8.40;3.40;;;12.50;99.90;;;;;;4982141;28;20451;-69
2022/10/02 07:05:18;;;;;;;9.07;3.10;;;12.60;99.90;;;;;;4982445;28;20447;-69
2022/10/02 07:07:57;;;;;;;11.50;3.30;;;12.60;99.90;;;;;;4982448;28;20485;-69
2022/10/02 07:10:34;;;;;;;6.27;3.60;;;12.60;99.90;;;;;;4982681;28;20453;-69
2022/10/02 07:13:27;;;;;;;9.87;4.00;;;12.60;99.90;;;;;;4981804;28;20466;-69
2022/10/02 07:16:26;;;;;;;7.03;3.30;;;12.60;99.90;;;;;;4978377;28;20557;-69
2022/10/02 07:19:11;;;;;;;7.30;3.83;;;12.60;99.90;;;;;;4969413;28;20482;-68
2022/10/02 07:21:51;;;;;;;10.70;4.17;;;12.60;99.90;;;;;;4982190;28;20470;-69
2022/10/02 07:24:39;;;;;;;5.03;3.50;;;12.60;99.90;;;;;;4982127;28;20782;-68
2022/10/02 07:27:17;;;;;;;9.30;4.83;;;12.60;99.90;;;;;;4982202;28;20469;-70
2022/10/02 07:29:54;;;;;;;9.53;3.80;;;12.70;99.90;;;;;;4982861;28;20827;-70
2022/10/02 07:32:41;;;;;;;7.80;4.20;;;12.70;99.90;;;;;;4982037;28;20548;-70
2022/10/02 07:35:33;;;;;;;7.60;4.30;;;12.70;99.90;;;;;;4981616;28;20811;-69
2022/10/02 07:38:16;;;;;;;6.87;4.00;;;12.80;99.90;;;;;;4981972;28;20443;-69
2022/10/02 07:40:54;;;;;;;10.47;5.27;;;12.90;99.90;;;;;;4981508;28;20533;-69
2022/10/02 07:43:36;;;;;;;11.00;5.23;;;12.90;99.90;;;;;;4977659;28;20435;-69
2022/10/02 07:46:15;;;;;;;10.27;4.87;;;13.00;99.90;;;;;;4979309;28;20533;-69
2022/10/02 07:49:12;;;;;;;11.93;4.33;;;13.10;99.90;;;;;;4978941;28;20438;-69
2022/10/02 07:51:48;;;;;;;9.97;4.73;;;13.20;99.90;;;;;;4978852;28;20443;-68
2022/10/02 07:54:45;;;;;;;9.27;4.70;;;13.30;99.90;;;;;;4978668;28;20485;-70
2022/10/02 07:57:27;;;;;;;7.57;4.10;;;13.40;99.90;;;;;;4958376;28;20557;-69
2022/10/02 07:59:59;;;;;;;6.50;4.50;;;13.50;99.90;;;;;;4978547;28;20447;-70
2022/10/02 08:02:32;;;;;;;12.73;5.50;;;13.60;99.90;;;;;;4978807;28;20451;-69
2022/10/02 08:05:05;;;;;;;7.93;5.13;;;13.60;99.90;;;;;;4978698;28;20559;-68
2022/10/02 08:07:33;;;;;;;11.37;4.43;;;13.80;99.90;;;;;;4978218;28;20633;-68
2022/10/02 08:10:06;;;;;;;10.27;4.70;;;13.90;99.90;;;;;;4978388;28;20526;-69
2022/10/02 08:12:39;;;;;;;10.33;5.20;;;14.00;99.90;;;;;;4977984;28;20825;-69
2022/10/02 08:15:14;;;;;;;14.87;4.60;;;14.10;99.90;;;;;;4978279;28;20435;-69
2022/10/02 08:17:48;;;;;;;10.23;4.23;;;14.20;99.90;;;;;;4977800;28;20461;-69
2022/10/02 08:20:22;;;;;;;11.03;4.60;;;14.20;99.90;;;;;;4978078;28;20442;-70
2022/10/02 08:22:54;;;;;;;8.73;4.47;;;14.40;99.90;;;;;;4977687;28;20513;-69
2022/10/02 08:25:25;;;;;;;9.60;4.60;;;14.40;99.90;;;;;;4978392;28;20506;-67
2022/10/02 08:27:58;;;;;;;5.70;4.37;;;14.50;99.90;;;;;;4977875;28;20466;-66
2022/10/02 08:30:25;;;;;;;12.90;4.90;;;14.50;99.90;;;;;;4978245;28;20443;-65
2022/10/02 08:32:53;;;;;;;12.10;5.70;;;14.60;99.90;;;;;;4978035;28;20464;-68
2022/10/02 08:35:24;;;;;;;9.47;4.93;;;14.60;99.90;;;;;;4980327;28;20550;-69
2022/10/02 08:38:12;;;;;;;9.20;4.70;;;14.60;99.90;;;;;;4981142;28;20457;-68
2022/10/02 08:41:11;;;;;;;13.43;6.07;;;14.70;99.90;;;;;;4978113;28;20461;-69
2022/10/02 08:44:14;;;;;;;10.30;5.30;;;14.60;99.90;;;;;;4977909;28;20435;-69
2022/10/02 08:47:17;;;;;;;9.20;5.27;;;14.60;99.90;;;;;;4977814;28;20545;-69
2022/10/02 08:50:20;;;;;;;9.47;5.40;;;14.70;99.90;;;;;;4977573;28;20489;-68
2022/10/02 08:53:15;;;;;;;11.57;5.00;;;14.90;99.90;;;;;;4976879;28;20589;-68
2022/10/02 08:56:25;;;;;;;13.57;5.13;;;15.00;99.90;;;;;;4977687;28;20450;-69
2022/10/02 08:59:25;;;;;;;7.10;4.10;;;15.00;99.90;;;;;;4954028;28;20494;-67
2022/10/02 09:02:12;;;;;;;16.93;5.70;;;15.00;99.90;;;;;;4977222;28;20450;-66
2022/10/02 09:05:27;;;;;;;11.10;4.73;;;15.00;99.90;;;;;;4977314;28;20439;-68
2022/10/02 09:08:25;;;;;;;7.60;4.50;;;15.10;99.90;;;;;;4898945;29;20471;-69
2022/10/02 09:11:20;;;;;;;11.07;4.73;;;15.20;99.90;;;;;;4900067;29;20470;-70
2022/10/02 09:14:14;;;;;;;5.37;4.10;;;15.30;99.90;;;;;;4973501;28;20490;-69
2022/10/02 09:17:08;;;;;;;12.40;4.93;;;15.30;99.90;;;;;;4977487;28;20470;-69
2022/10/02 09:19:45;;;;;;;9.00;4.80;;;15.30;99.90;;;;;;4977060;28;20438;-68
2022/10/02 09:22:32;;;;;;;12.57;4.83;;;15.30;99.90;;;;;;4976493;28;20883;-68
2022/10/02 09:25:21;;;;;;;9.90;4.80;;;15.30;99.90;;;;;;4976912;28;20435;-68
2022/10/02 09:28:21;;;;;;;12.80;4.50;;;15.30;99.90;;;;;;4976323;28;20453;-69
2022/10/02 09:31:29;;;;;;;12.30;4.53;;;15.40;99.90;;;;;;4976773;28;20447;-68
2022/10/02 09:34:39;;;;;;;8.17;4.40;;;15.30;99.90;;;;;;4976552;28;20485;-68
2022/10/02 09:37:27;;;;;;;10.47;4.80;;;15.30;99.90;;;;;;4931906;28;20474;-67
2022/10/02 09:40:37;;;;;;;16.70;6.27;;;15.30;99.90;;;;;;4976620;28;20495;-69
2022/10/02 09:43:37;;;;;;;9.67;4.60;;;15.30;99.90;;;;;;4975550;28;20462;-69
2022/10/02 09:46:32;;;;;;;10.30;4.40;;;15.40;99.90;;;;;;4976660;28;20491;-68
2022/10/02 09:49:42;;;;;;;11.37;4.80;;;15.50;99.90;;;;;;4964327;28;20494;-67
2022/10/02 09:52:39;;;;;;;9.13;5.20;;;15.50;99.90;;;;;;4976172;28;20497;-69
2022/10/02 09:55:51;;;;;;;8.43;3.90;;;15.50;99.90;;;;;;4976300;28;20463;-68
2022/10/02 09:59:01;;;;;;;11.77;4.60;;;15.50;99.90;;;;;;4978203;28;20857;-68
2022/10/02 10:02:11;;;;;;;13.73;4.27;;;15.70;99.90;;;;;;4978229;28;20443;-70
2022/10/02 10:05:08;;;;;;;8.50;4.90;;;15.90;99.90;;;;;;4958108;28;20454;-69
2022/10/02 10:07:55;;;;;;;10.57;5.10;;;16.00;99.90;;;;;;4961207;28;20525;-69
2022/10/02 10:10:37;;;;;;;10.07;4.30;;;16.00;99.90;;;;;;4977335;28;20832;-70
2022/10/02 10:13:32;;;;;;;9.43;4.17;;;16.00;99.90;;;;;;4977569;28;20497;-69
2022/10/02 10:16:41;;;;;;;9.70;3.90;;;15.80;99.90;;;;;;4977809;28;20461;-69
2022/10/02 10:19:44;;;;;;;10.40;4.67;;;15.70;99.90;;;;;;4967478;28;20459;-70
2022/10/02 10:22:41;;;;;;;9.47;4.03;;;15.60;99.90;;;;;;4976677;28;20854;-70
2022/10/02 10:25:40;;;;;;;10.50;4.50;;;15.40;99.90;;;;;;4977073;28;20450;-69
2022/10/02 10:28:33;;;;;;;9.73;4.43;;;14.90;99.90;;;;;;4976772;28;20457;-69
2022/10/02 10:31:36;;;;;;;10.23;3.93;;;14.40;99.90;;;;;;4976792;28;20562;-69
2022/10/02 10:34:33;;;;;;;7.53;3.50;;;14.20;99.90;;;;;;4976810;28;20470;-69
2022/10/02 10:40:22;;;;;;;5.50;4.50;;;14.20;99.90;;;;;;4977544;28;20486;-71
2022/10/02 10:43:35;;;;;;;7.40;4.30;;;14.30;99.90;;;;;;4977622;28;20907;-70
2022/10/02 10:46:49;;;;;;;9.37;4.57;;;14.40;99.90;;;;;;4976748;28;20921;-69
2022/10/02 10:49:43;;;;;;;6.70;3.87;;;14.40;99.90;;;;;;4914514;28;20538;-70
2022/10/02 10:52:21;;;;;;;6.10;4.80;;;14.40;99.90;;;;;;4977339;28;20581;-70
2022/10/02 10:55:11;;;;;;;10.07;4.23;;;14.40;99.90;;;;;;4978117;28;20819;-70
2022/10/02 10:58:07;;;;;;;5.50;3.80;;;14.40;99.90;;;;;;4977065;28;20451;-68
2022/10/02 11:00:45;;;;;;;5.70;3.53;;;14.40;99.90;;;;;;4977124;28;20443;-69
2022/10/02 11:03:57;;;;;;;7.57;3.50;;;14.30;99.90;;;;;;4976907;28;20884;-70
2022/10/02 11:06:49;;;;;;;5.90;3.23;;;14.20;99.90;;;;;;4933278;28;20472;-70
2022/10/02 11:09:57;;;;;;;6.50;3.70;;;14.10;99.90;;;;;;4978610;28;20517;-70
2022/10/02 11:13:04;;;;;;;13.23;4.50;;;14.10;99.90;;;;;;4978348;28;20442;-70
2022/10/02 11:15:59;;;;;;;4.10;3.53;;;14.10;99.90;;;;;;4977025;28;20955;-69
2022/10/02 11:18:46;;;;;;;6.83;3.53;;;14.00;99.90;;;;;;4980915;28;20573;-68
2022/10/02 11:21:45;;;;;;;7.93;5.00;;;13.90;99.90;;;;;;4981142;28;20529;-70
2022/10/02 11:24:40;;;;;;;8.00;4.23;;;13.80;99.90;;;;;;4980346;28;20834;-69
2022/10/02 11:27:29;;;;;;;10.37;4.87;;;13.60;99.90;;;;;;4981930;28;20845;-70
2022/10/02 11:30:21;;;;;;;13.67;5.20;;;13.50;99.90;;;;;;4981009;28;20471;-70
2022/10/02 11:33:29;;;;;;;11.10;5.67;;;13.40;99.90;;;;;;4971877;28;20473;-69
2022/10/02 11:36:40;;;;;;;9.83;4.77;;;13.30;99.90;;;;;;4980743;28;20522;-70
2022/10/02 11:39:15;;;;;;;8.77;4.73;;;13.30;99.90;;;;;;4980421;28;20561;-69
2022/10/02 11:42:05;;;;;;;9.50;5.17;;;13.40;99.90;;;;;;4980922;28;20442;-70
2022/10/02 11:44:51;;;;;;;9.80;5.03;;;13.60;99.90;;;;;;4979544;28;20439;-70
2022/10/02 11:47:46;;;;;;;17.90;5.90;;;13.90;99.90;;;;;;4980307;28;20442;-69
2022/10/02 11:50:51;;;;;;;8.77;4.33;;;14.40;99.90;;;;;;4980514;28;20439;-69
2022/10/02 11:53:39;;;;;;;6.30;3.97;;;15.10;99.90;;;;;;4964493;28;20493;-70
2022/10/02 11:56:21;;;;;;;6.07;2.83;;;15.60;99.90;;;;;;4980214;28;20437;-69
2022/10/02 11:58:58;;;;;;;8.63;4.17;;;16.20;99.90;;;;;;4981200;28;20891;-69
2022/10/02 12:01:34;;;;;;;4.60;3.43;;;17.00;99.90;;;;;;4981481;28;20449;-70
2022/10/02 12:04:18;;;;;;;4.40;2.97;;;17.70;99.90;;;;;;4981333;28;20449;-69
2022/10/02 12:07:03;;;;;;;5.53;3.17;;;18.30;99.90;;;;;;4979814;28;20439;-69
2022/10/02 12:09:41;;;;;;;4.67;2.90;;;18.50;99.90;;;;;;4979603;28;20748;-68
2022/10/02 12:12:24;;;;;;;6.80;2.87;;;18.80;99.90;;;;;;4979458;28;20922;-69
2022/10/02 12:15:00;;;;;;;6.27;3.13;;;19.00;99.90;;;;;;4979255;28;20468;-68
2022/10/02 12:18:01;;;;;;;10.33;3.20;;;19.10;99.90;;;;;;4978599;28;20451;-68
2022/10/02 12:26:59;;;;;;;3.77;2.30;;;19.70;99.90;;;;;;4978557;28;20462;-69
2022/10/02 12:29:39;;;;;;;6.97;2.30;;;20.00;99.90;;;;;;4978421;28;20526;-70
2022/10/02 12:32:15;;;;;;;4.40;2.20;;;20.30;99.90;;;;;;4978169;28;20510;-69
2022/10/02 12:34:53;;;;;;;6.00;2.40;;;20.70;99.90;;;;;;4978842;28;20471;-68
2022/10/02 12:37:28;;;;;;;6.50;2.40;;;20.70;99.90;;;;;;4978729;28;20550;-67
2022/10/02 12:40:04;;;;;;;6.50;2.47;;;20.70;99.90;;;;;;4979089;28;20542;-70
2022/10/02 12:43:10;;;;;;;4.30;2.30;;;20.90;99.90;;;;;;4978604;28;20435;-68
2022/10/02 12:46:06;;;;;;;4.27;2.63;;;21.20;99.90;;;;;;4955680;28;20802;-69
2022/10/02 12:49:05;;;;;;;4.30;2.03;;;20.80;99.90;;;;;;4978424;28;20446;-68
2022/10/02 12:51:38;;;;;;;3.37;1.57;;;20.60;99.90;;;;;;4935281;28;20465;-68
2022/10/02 12:55:00;;;;;;;6.43;1.97;;;20.60;99.90;;;;;;4977257;28;20482;-69
2022/10/02 12:57:52;;;;;;;3.33;1.43;;;21.10;99.90;;;;;;4945177;28;20465;-69
2022/10/02 13:00:20;;;;;;;2.90;1.70;;;21.80;99.90;;;;;;4977667;28;20451;-69
2022/10/02 13:03:32;;;;;;;4.90;1.80;;;21.90;99.90;;;;;;4978165;28;20537;-68
2022/10/02 13:06:22;;;;;;;4.23;1.60;;;22.20;99.90;;;;;;4978350;28;20461;-69
2022/10/02 13:09:04;;;;;;;4.70;1.30;;;22.30;99.90;;;;;;4935852;28;20943;-69
2022/10/02 13:11:41;;;;;;;5.53;1.63;;;21.80;99.90;;;;;;4978029;28;20453;-69
2022/10/02 13:14:30;;;;;;;3.53;1.50;;;21.10;99.90;;;;;;4977796;28;20439;-68
2022/10/02 13:17:12;;;;;;;5.20;1.77;;;19.80;99.90;;;;;;4978220;28;20493;-68
2022/10/02 13:19:49;;;;;;;5.30;1.60;;;19.00;99.90;;;;;;4977434;28;20447;-69
2022/10/02 13:22:23;;;;;;;6.20;2.27;;;18.50;99.90;;;;;;4977371;28;20785;-68
2022/10/02 13:25:03;;;;;;;6.20;1.57;;;18.10;99.90;;;;;;4977278;28;20449;-69
2022/10/02 13:27:38;;;;;;;5.33;1.60;;;17.60;99.90;;;;;;4976874;28;20446;-69
2022/10/02 13:30:13;;;;;;;4.53;1.67;;;17.40;99.90;;;;;;4977293;28;20443;-69
2022/10/02 13:33:22;;;;;;;4.67;1.80;;;17.20;99.90;;;;;;4977316;28;20447;-69
2022/10/02 13:36:03;;;;;;;3.77;1.87;;;16.90;99.90;;;;;;4898896;29;21008;-70
2022/10/02 13:38:46;;;;;;;6.10;1.90;;;16.90;99.90;;;;;;4899442;29;20880;-69
2022/10/02 13:41:25;;;;;;;4.53;1.60;;;16.90;99.90;;;;;;4953591;28;20459;-68
2022/10/02 13:44:10;;;;;;;3.10;1.83;;;16.90;99.90;;;;;;4976844;28;20477;-69
2022/10/02 13:46:55;;;;;;;5.07;2.03;;;16.80;99.90;;;;;;4977102;28;20457;-69
2022/10/02 13:49:31;;;;;;;3.20;1.77;;;16.80;99.90;;;;;;4979557;28;20775;-68
2022/10/02 13:52:06;;;;;;;4.03;1.50;;;16.90;99.90;;;;;;4977086;28;20851;-69
2022/10/02 13:54:49;;;;;;;3.57;1.40;;;17.50;99.90;;;;;;4976533;28;20561;-69
2022/10/02 13:57:29;;;;;;;4.73;1.70;;;18.80;99.90;;;;;;4977441;28;20771;-68
2022/10/02 14:00:08;;;;;;;5.50;2.07;;;19.10;99.90;;;;;;4977017;28;20446;-69
2022/10/02 14:03:03;;;;;;;6.43;1.77;;;19.00;99.90;;;;;;4977128;28;20778;-68
2022/10/02 14:05:42;;;;;;;3.27;1.47;;;19.50;99.90;;;;;;4973655;28;20545;-68
2022/10/02 14:08:30;;;;;;;4.17;1.90;;;20.40;99.90;;;;;;4976683;28;20938;-68